^^
Grace C. Lehan Memorial Weather Station Historical Data
Daily Summary for January 5, 2021 Units:  English    Metric   Both
Daily Weekly Monthly Yearly
  High: Low: Average:
Temperature: 41.9 °F 32.9 °F 37.3 °F
Dew Point: 33.8 °F 30.8 °F 31.8 °F
Humidity: 92% 67.8% 81%
Wind Speed: 4mph 0mph 1mph
Wind Gust: 12mph - -
Wind- - SW
Pressure: 29.92 in 29.84 in -
Precipitation: 0.00 in    
 
 
Tabular Data for January 5, 2021
Time Temperature Dew Point Pressure Wind Wind Speed Wind Gust Humidity Rainfall Rate (Hourly) solar
00:04 33.3 °F 31.2 °F 29.91 in Calm     92% 0.00 in 0 W/m2
00:09 33.3 °F 31.2 °F 29.91 in Calm     92% 0.00 in 0 W/m2
00:14 33.3 °F 31.2 °F 29.91 in Calm     92% 0.00 in 0 W/m2
00:19 33.3 °F 31.2 °F 29.91 in Calm     92% 0.00 in 0 W/m2
00:24 33.3 °F 31.2 °F 29.91 in Calm   1 mph 92% 0.00 in 0 W/m2
00:29 33.2 °F 31.1 °F 29.90 in Calm   1 mph 92% 0.00 in 0 W/m2
00:34 33.2 °F 31.1 °F 29.90 in Calm   1 mph 92% 0.00 in 0 W/m2
00:39 33.2 °F 31.1 °F 29.90 in Calm     92% 0.00 in 0 W/m2
00:44 33.1 °F 31 °F 29.90 in Calm     92% 0.00 in 0 W/m2
00:49 33 °F 30.9 °F 29.90 in Calm   1 mph 92% 0.00 in 0 W/m2
00:54 32.9 °F 30.9 °F 29.90 in Calm   1 mph 92% 0.00 in 0 W/m2
00:59 32.9 °F 30.8 °F 29.90 in Calm   1 mph 92% 0.00 in 0 W/m2
01:04 32.9 °F 30.8 °F 29.90 in Calm   2 mph 92% 0.00 in 0 W/m2
01:09 32.9 °F 30.8 °F 29.90 in Calm   2 mph 92% 0.00 in 0 W/m2
01:14 32.9 °F 30.8 °F 29.90 in NNW 0.1 mph 3 mph 92% 0.00 in 0 W/m2
01:19 33 °F 30.9 °F 29.90 in North 0.3 mph 3 mph 92% 0.00 in 0 W/m2
01:24 33 °F 30.9 °F 29.90 in Calm   3 mph 92% 0.00 in 0 W/m2
01:29 33.1 °F 31 °F 29.90 in Calm   3 mph 92% 0.00 in 0 W/m2
01:34 33.1 °F 31 °F 29.90 in Calm   3 mph 92% 0.00 in 0 W/m2
01:39 33.1 °F 31.1 °F 29.90 in Calm   1 mph 92% 0.00 in 0 W/m2
01:44 33.2 °F 31.1 °F 29.90 in Calm   1 mph 92% 0.00 in 0 W/m2
01:49 33.2 °F 31.1 °F 29.90 in Calm   1 mph 92% 0.00 in 0 W/m2
01:54 33.2 °F 31.1 °F 29.90 in North 0.5 mph 3 mph 92% 0.00 in 0 W/m2
01:59 33.2 °F 31.1 °F 29.90 in North 0.2 mph 3 mph 92% 0.00 in 0 W/m2
02:04 33.3 °F 31.2 °F 29.90 in North 0.2 mph 3 mph 92% 0.00 in 0 W/m2
02:09 33.3 °F 31.2 °F 29.90 in Calm   2 mph 92% 0.00 in 0 W/m2
02:14 33.3 °F 31.2 °F 29.90 in Calm   2 mph 92% 0.00 in 0 W/m2
02:19 33.3 °F 31.2 °F 29.90 in Calm   2 mph 92% 0.00 in 0 W/m2
02:24 33.3 °F 31.2 °F 29.90 in Calm   2 mph 92% 0.00 in 0 W/m2
02:29 33.3 °F 31.2 °F 29.90 in Calm   2 mph 92% 0.00 in 0 W/m2
02:34 33.3 °F 31.2 °F 29.90 in Calm   2 mph 92% 0.00 in 0 W/m2
02:39 33.3 °F 31.2 °F 29.90 in Calm     92% 0.00 in 0 W/m2
02:44 33.3 °F 31.3 °F 29.90 in Calm     92% 0.00 in 0 W/m2
02:49 33.4 °F 31.3 °F 29.90 in Calm     92% 0.00 in 0 W/m2
02:54 33.4 °F 31.3 °F 29.90 in Calm     92% 0.00 in 0 W/m2
02:59 33.4 °F 31.3 °F 29.89 in Calm     92% 0.00 in 0 W/m2
03:04 33.4 °F 31.4 °F 29.90 in Calm     92% 0.00 in 0 W/m2
03:09 33.4 °F 31.4 °F 29.90 in Calm     92% 0.00 in 0 W/m2
03:14 33.5 °F 31.4 °F 29.90 in Calm     92% 0.00 in 0 W/m2
03:19 33.5 °F 31.4 °F 29.90 in Calm     92% 0.00 in 0 W/m2
03:24 33.5 °F 31.4 °F 29.90 in Calm     92% 0.00 in 0 W/m2
03:29 33.5 °F 31.4 °F 29.90 in Calm     92% 0.00 in 0 W/m2
03:34 33.5 °F 31.4 °F 29.90 in Calm     92% 0.00 in 0 W/m2
03:39 33.5 °F 31.4 °F 29.90 in Calm     92% 0.00 in 0 W/m2
03:44 33.5 °F 31.5 °F 29.90 in Calm     92% 0.00 in 0 W/m2
03:49 33.5 °F 31.5 °F 29.90 in Calm     92% 0.00 in 0 W/m2
03:54 33.6 °F 31.5 °F 29.90 in Calm     92% 0.00 in 0 W/m2
03:59 33.6 °F 31.5 °F 29.90 in Calm     92% 0.00 in 0 W/m2
04:04 33.6 °F 31.5 °F 29.90 in Calm     92% 0.00 in 0 W/m2
04:09 33.6 °F 31.5 °F 29.90 in Calm     92% 0.00 in 0 W/m2
04:14 33.6 °F 31.5 °F 29.90 in North 0.2 mph 3 mph 92% 0.00 in 0 W/m2
04:19 33.6 °F 31.5 °F 29.90 in Calm   3 mph 92% 0.00 in 0 W/m2
04:24 33.6 °F 31.5 °F 29.90 in Calm   3 mph 92% 0.00 in 0 W/m2
04:25 33.6 °F 31.5 °F 29.90 in Calm   3 mph 92% 0.00 in 0 W/m2
04:30 33.6 °F 31.5 °F 29.90 in Calm   3 mph 92% 0.00 in 0 W/m2
05:00 33.5 °F 31.4 °F 29.90 in Calm     92% 0.00 in 0 W/m2
05:30 33.4 °F 31.3 °F 29.90 in Calm     92% 0.00 in 0 W/m2
06:00 33.3 °F 31.2 °F 29.91 in Calm     92% 0.00 in 0 W/m2
06:30 33.3 °F 31.2 °F 29.91 in Calm   3 mph 92% 0.00 in 0 W/m2
07:00 33.4 °F 31.3 °F 29.91 in North 1 mph 5 mph 92% 0.00 in 0 W/m2
07:30 33.6 °F 31.3 °F 29.92 in Calm   3 mph 91% 0.00 in 1 W/m2
08:04 34 °F 31.4 °F 29.92 in Calm   3 mph 90.1% 0.00 in 30 W/m2
08:09 34 °F 31.4 °F 29.92 in North 0.4 mph 3 mph 90% 0.00 in 33 W/m2
08:14 34.1 °F 31.5 °F 29.92 in Calm   3 mph 90% 0.00 in 37 W/m2
08:19 34.2 °F 31.5 °F 29.92 in Calm   3 mph 90% 0.00 in 42 W/m2
08:24 34.2 °F 31.3 °F 29.92 in North 0.2 mph 3 mph 89% 0.00 in 49 W/m2
08:29 34.3 °F 31.4 °F 29.92 in Calm   3 mph 89% 0.00 in 56 W/m2
08:34 34.4 °F 31.5 °F 29.92 in Calm   3 mph 89% 0.00 in 62 W/m2
08:39 34.6 °F 31.7 °F 29.92 in Calm     89% 0.00 in 65 W/m2
08:44 34.7 °F 31.8 °F 29.92 in North 0.7 mph 3 mph 89% 0.00 in 69 W/m2
08:49 34.8 °F 31.7 °F 29.92 in Calm   3 mph 88.1% 0.00 in 74 W/m2
08:54 34.9 °F 31.8 °F 29.92 in Calm   3 mph 88% 0.00 in 77 W/m2
08:59 35.1 °F 31.7 °F 29.92 in Calm   3 mph 87.3% 0.00 in 83 W/m2
09:04 35.2 °F 31.8 °F 29.92 in Calm   3 mph 87% 0.00 in 88 W/m2
09:09 35.4 °F 31.9 °F 29.92 in Calm     86.9% 0.00 in 93 W/m2
09:14 35.6 °F 31.8 °F 29.92 in NNW 0.9 mph 5 mph 86% 0.00 in 97 W/m2
09:19 35.7 °F 31.7 °F 29.92 in NNW 0.4 mph 5 mph 85.1% 0.00 in 102 W/m2
09:24 35.9 °F 31.8 °F 29.92 in Calm   5 mph 85% 0.00 in 109 W/m2
09:29 36.1 °F 32 °F 29.92 in NNW 1 mph 5 mph 85% 0.00 in 116 W/m2
09:34 36.3 °F 32 °F 29.92 in NNW 2.4 mph 5 mph 84.1% 0.00 in 127 W/m2
09:39 36.4 °F 31.8 °F 29.92 in NNW 1.4 mph 5 mph 83% 0.00 in 130 W/m2
09:44 36.6 °F 31.9 °F 29.92 in NNW 2.1 mph 6 mph 82.7% 0.00 in 134 W/m2
09:49 36.8 °F 31.7 °F 29.92 in North 2 mph 6 mph 81.7% 0.00 in 139 W/m2
09:54 37 °F 31.7 °F 29.92 in NNW 2.6 mph 7 mph 81% 0.00 in 146 W/m2
09:59 37.2 °F 31.8 °F 29.92 in NNW 1.9 mph 7 mph 80.8% 0.00 in 148 W/m2
10:04 37.3 °F 31.8 °F 29.91 in North 1.5 mph 7 mph 80.2% 0.00 in 148 W/m2
10:09 37.5 °F 31.9 °F 29.91 in North 1.7 mph 6 mph 80% 0.00 in 148 W/m2
10:14 37.7 °F 31.9 °F 29.91 in NNE 0.8 mph 6 mph 79.5% 0.00 in 149 W/m2
10:19 37.9 °F 32 °F 29.91 in NNW 2.8 mph 9 mph 79.2% 0.00 in 153 W/m2
10:24 38 °F 32 °F 29.91 in North 2.5 mph 9 mph 78.7% 0.00 in 158 W/m2
10:29 38 °F 31.8 °F 29.91 in NNW 1.4 mph 9 mph 78% 0.00 in 167 W/m2
10:34 38.1 °F 31.8 °F 29.90 in North 2.3 mph 9 mph 77.8% 0.00 in 179 W/m2
10:39 38.3 °F 32 °F 29.90 in North 0.9 mph 5 mph 78% 0.00 in 192 W/m2
10:44 38.6 °F 32.3 °F 29.89 in North 1.6 mph 5 mph 78% 0.00 in 204 W/m2
10:49 38.9 °F 32.7 °F 29.89 in North 0.8 mph 5 mph 78% 0.00 in 193 W/m2
10:54 39.3 °F 32.9 °F 29.89 in NNW 1.6 mph 6 mph 77.8% 0.00 in 216 W/m2
10:59 39.6 °F 33.1 °F 29.89 in NNW 1.2 mph 6 mph 77.4% 0.00 in 218 W/m2
11:04 40.1 °F 33.5 °F 29.89 in NNW 3.3 mph 10 mph 77.1% 0.00 in 223 W/m2
11:09 40.4 °F 33.1 °F 29.89 in NNW 2.1 mph 10 mph 75.1% 0.00 in 193 W/m2
11:14 40.4 °F 32.9 °F 29.88 in North 4 mph 10 mph 74.2% 0.00 in 223 W/m2
11:19 40.4 °F 33.1 °F 29.88 in NE 1.1 mph 10 mph 74.8% 0.00 in 221 W/m2
11:24 40.6 °F 33.4 °F 29.88 in North 3.3 mph 10 mph 75.2% 0.00 in 197 W/m2
11:29 40.7 °F 33.4 °F 29.88 in NNW 3.1 mph 10 mph 75% 0.00 in 190 W/m2
11:34 40.7 °F 33.7 °F 29.88 in North 1.8 mph 10 mph 75.7% 0.00 in 213 W/m2
11:39 40.9 °F 33.7 °F 29.87 in NE 2.2 mph 6 mph 75.2% 0.00 in 223 W/m2
11:44 40.9 °F 33.5 °F 29.88 in North 2.6 mph 7 mph 74.5% 0.00 in 223 W/m2
11:49 41 °F 33.5 °F 29.88 in NNE 2.1 mph 7 mph 74.5% 0.00 in 181 W/m2
11:54 41.1 °F 33.8 °F 29.87 in NNW 2.6 mph 7 mph 75% 0.00 in 153 W/m2
11:59 41.1 °F 33.7 °F 29.87 in NW 3 mph 10 mph 74.7% 0.00 in 160 W/m2
12:04 40.9 °F 33.2 °F 29.86 in NW 3.2 mph 4 mph 74% 0.00 in 172 W/m2
12:09 40.7 °F 33.3 °F 29.86 in North 1.5 mph 9 mph 74.6% 0.00 in 172 W/m2
12:14 40.6 °F 33.3 °F 29.86 in NNE 2.9 mph 9 mph 75% 0.00 in 151 W/m2
12:19 40.7 °F 33.4 °F 29.86 in NNE 2.2 mph 9 mph 75% 0.00 in 373 W/m2
12:24 41.1 °F 33.7 °F 29.86 in North 2.7 mph 9 mph 74.7% 0.00 in 366 W/m2
12:29 41.4 °F 33.6 °F 29.86 in NW 2.2 mph 10 mph 73.4% 0.00 in 167 W/m2
12:34 41.4 °F 33.3 °F 29.85 in North 3.3 mph 10 mph 72.7% 0.00 in 195 W/m2
12:39 41.4 °F 33.4 °F 29.85 in North 2 mph 7 mph 72.9% 0.00 in 237 W/m2
12:44 41.4 °F 33.1 °F 29.85 in NNE 1.3 mph 7 mph 72.1% 0.00 in 232 W/m2
12:49 41.5 °F 32.8 °F 29.85 in North 2.7 mph 7 mph 71% 0.00 in 206 W/m2
12:54 41.6 °F 32.5 °F 29.85 in NNE 2.1 mph 7 mph 69.9% 0.00 in 297 W/m2
12:59 41.6 °F 32.1 °F 29.84 in ENE 2.6 mph 9 mph 68.5% 0.00 in 311 W/m2
13:04 41.7 °F 32.3 °F 29.84 in NE 1.8 mph 9 mph 68.8% 0.00 in 200 W/m2
13:09 41.9 °F 32.5 °F 29.84 in NE 2.1 mph 7 mph 69% 0.00 in 200 W/m2
13:14 41.9 °F 32.3 °F 29.84 in NNW 2.7 mph 9 mph 68.3% 0.00 in 100 W/m2
13:19 41.8 °F 32 °F 29.84 in NNW 2.7 mph 9 mph 68% 0.00 in 251 W/m2
13:24 41.5 °F 32.1 °F 29.84 in NE 1.6 mph 9 mph 68.9% 0.00 in 304 W/m2
13:29 41.5 °F 31.9 °F 29.84 in NNW 0.4 mph 9 mph 68.5% 0.00 in 127 W/m2
13:34 41.6 °F 32.4 °F 29.84 in North 1.9 mph 10 mph 69.7% 0.00 in 125 W/m2
13:39 41.6 °F 32.6 °F 29.85 in NNE 0.6 mph 10 mph 70.1% 0.00 in 132 W/m2
13:44 41.6 °F 32.8 °F 29.85 in NNW 3.4 mph 11 mph 70.7% 0.00 in 141 W/m2
13:49 41.5 °F 32.4 °F 29.85 in NNW 2.6 mph 11 mph 70% 0.00 in 123 W/m2
13:54 41.3 °F 32.1 °F 29.84 in NNW 3 mph 11 mph 69.3% 0.00 in 88 W/m2
13:59 41.2 °F 31.8 °F 29.84 in NNW 1 mph 11 mph 69% 0.00 in 79 W/m2
14:04 41.1 °F 32 °F 29.84 in NNW 1.6 mph 11 mph 69.8% 0.00 in 104 W/m2
14:09 41 °F 32 °F 29.84 in NNW 0.3 mph 7 mph 70.1% 0.00 in 193 W/m2
14:14 41.2 °F 32.2 °F 29.84 in NNW 1.1 mph 9 mph 70% 0.00 in 193 W/m2
14:19 41.4 °F 32 °F 29.84 in NNW 2.3 mph 12 mph 69.1% 0.00 in 114 W/m2
14:24 41.5 °F 32.1 °F 29.84 in NNE 1 mph 12 mph 69% 0.00 in 116 W/m2
14:29 41.5 °F 31.9 °F 29.85 in NE 2.5 mph 12 mph 68.4% 0.00 in 102 W/m2
14:34 41.3 °F 31.5 °F 29.85 in ENE 0.7 mph 12 mph 67.8% 0.00 in 100 W/m2
14:39 41.3 °F 31.9 °F 29.85 in ENE 1.2 mph 5 mph 69% 0.00 in 100 W/m2
14:44 41.3 °F 31.8 °F 29.85 in North 1 mph 5 mph 68.8% 0.00 in 86 W/m2
14:49 41.3 °F 31.9 °F 29.85 in North 2.1 mph 9 mph 69% 0.00 in 72 W/m2
14:54 41.2 °F 31.8 °F 29.85 in NNW 0.8 mph 9 mph 69% 0.00 in 77 W/m2
14:59 41.2 °F 31.8 °F 29.85 in NE 0.7 mph 9 mph 69% 0.00 in 70 W/m2
15:04 41.2 °F 31.8 °F 29.85 in North 1.2 mph 9 mph 69% 0.00 in 60 W/m2
15:09 41.1 °F 31.9 °F 29.85 in NNW 0.3 mph 6 mph 69.5% 0.00 in 54 W/m2
15:14 41.1 °F 31.9 °F 29.86 in North 0.1 mph 6 mph 69.4% 0.00 in 56 W/m2
15:19 41.1 °F 31.8 °F 29.86 in North 0.7 mph 6 mph 69.2% 0.00 in 53 W/m2
15:24 41 °F 31.8 °F 29.86 in North 2.2 mph 7 mph 69.5% 0.00 in 47 W/m2
15:29 41 °F 32 °F 29.86 in North 2.6 mph 11 mph 70% 0.00 in 39 W/m2
15:34 40.9 °F 31.9 °F 29.86 in NNW 1.3 mph 12 mph 70% 0.00 in 33 W/m2
15:39 40.8 °F 31.8 °F 29.86 in NNW 2 mph 12 mph 70% 0.00 in 30 W/m2
15:44 40.6 °F 31.6 °F 29.87 in NNW 2.9 mph 12 mph 70% 0.00 in 28 W/m2
15:49 40.5 °F 31.5 °F 29.87 in NNW 1.2 mph 12 mph 70% 0.00 in 25 W/m2
15:54 40.4 °F 31.6 °F 29.87 in NNW 0.9 mph 12 mph 70.6% 0.00 in 19 W/m2
15:59 40.3 °F 31.5 °F 29.87 in NNW 1.8 mph 12 mph 70.5% 0.00 in 14 W/m2
16:00 40.3 °F 31.3 °F 29.87 in Calm   12 mph 70% 0.00 in 12 W/m2
16:09 40.1 °F 31.5 °F 29.87 in NW 1 mph 7 mph 70.9% 0.00 in 12 W/m2
16:14 40 °F 31.3 °F 29.87 in NNW 2.4 mph 7 mph 70.9% 0.00 in 11 W/m2
16:19 39.9 °F 31.3 °F 29.88 in NNW 0.3 mph 7 mph 71% 0.00 in 9 W/m2
16:24 39.9 °F 31.2 °F 29.88 in NW 1.3 mph 7 mph 71% 0.00 in 7 W/m2
16:29 39.8 °F 31.2 °F 29.88 in NNW 1.4 mph 7 mph 71% 0.00 in 0 W/m2
16:34 39.7 °F 31.3 °F 29.88 in NNW 2.6 mph 7 mph 71.7% 0.00 in 0 W/m2
16:39 39.7 °F 31.4 °F 29.88 in NNW 0.1 mph 6 mph 71.8% 0.00 in 0 W/m2
16:44 39.7 °F 31.4 °F 29.88 in NNW 0.6 mph 6 mph 72% 0.00 in 0 W/m2
16:49 39.6 °F 31.3 °F 29.88 in NNW 0.4 mph 6 mph 72% 0.00 in 0 W/m2
16:54 39.5 °F 31.4 °F 29.88 in Calm   6 mph 72.4% 0.00 in 0 W/m2
16:59 39.5 °F 31.6 °F 29.88 in NNW 0.4 mph 6 mph 73% 0.00 in 0 W/m2
17:04 39.5 °F 31.5 °F 29.88 in North 0.7 mph 6 mph 73% 0.00 in 0 W/m2
17:09 39.4 °F 31.5 °F 29.89 in NNW 0.7 mph 5 mph 73% 0.00 in 0 W/m2
17:14 39.4 °F 31.5 °F 29.88 in NNW 1.1 mph 5 mph 73% 0.00 in 0 W/m2
17:19 39.3 °F 31.6 °F 29.89 in NNW 0.3 mph 5 mph 73.7% 0.00 in 0 W/m2
17:24 39.3 °F 31.7 °F 29.89 in North 0.7 mph 6 mph 74% 0.00 in 0 W/m2
17:29 39.2 °F 31.6 °F 29.89 in NNE 0.3 mph 6 mph 74% 0.00 in 0 W/m2
17:34 39.1 °F 31.5 °F 29.89 in NNE 0.3 mph 6 mph 74% 0.00 in 0 W/m2
17:39 39.1 °F 31.5 °F 29.89 in NNW 1.9 mph 7 mph 74% 0.00 in 0 W/m2
17:44 39 °F 31.5 °F 29.89 in NNW 1.7 mph 7 mph 74.3% 0.00 in 0 W/m2
17:49 39 °F 31.7 °F 29.89 in North 1.1 mph 7 mph 74.8% 0.00 in 0 W/m2
17:54 38.9 °F 31.7 °F 29.89 in NE 0.6 mph 7 mph 75% 0.00 in 0 W/m2
17:59 38.9 °F 31.6 °F 29.89 in NNW 1.7 mph 7 mph 75% 0.00 in 0 W/m2
18:03 38.8 °F 31.6 °F 29.89 in NNW 2.1 mph 7 mph 75% 0.00 in 0 W/m2
Hartford County Weather
Compliments of Weather Underground - 2 mb